createdAt,value
2023-05-13T00:00:35.205Z,45.00
2023-05-13T00:03:03.588Z,45.14
2023-05-13T00:05:32.136Z,45.38
2023-05-13T00:08:02.254Z,45.36
2023-05-13T00:10:30.563Z,45.48
2023-05-13T00:13:00.257Z,45.25
2023-05-13T00:15:28.928Z,45.33
2023-05-13T00:17:57.802Z,45.27
2023-05-13T00:20:26.632Z,45.39
2023-05-13T00:22:54.678Z,45.40
2023-05-13T00:25:22.803Z,45.51
2023-05-13T00:27:51.534Z,45.66
2023-05-13T00:30:21.494Z,45.63
2023-05-13T00:32:49.981Z,45.77
2023-05-13T00:35:19.086Z,45.76
2023-05-13T00:37:47.861Z,45.70
2023-05-13T00:40:21.022Z,45.88
2023-05-13T00:42:49.752Z,45.96
2023-05-13T00:45:17.954Z,45.78
2023-05-13T00:47:47.743Z,45.78
2023-05-13T00:50:16.259Z,45.69
2023-05-13T00:52:44.677Z,45.47
2023-05-13T00:55:12.958Z,45.82
2023-05-13T00:57:41.385Z,45.78
2023-05-13T01:00:11.007Z,46.02
2023-05-13T01:02:46.950Z,46.01
2023-05-13T01:05:23.661Z,46.10
2023-05-13T01:08:00.594Z,46.00
2023-05-13T01:10:47.764Z,45.80
2023-05-13T01:13:21.770Z,46.16
2023-05-13T01:15:53.208Z,46.54
2023-05-13T01:18:26.340Z,46.24
2023-05-13T01:20:57.466Z,46.77
2023-05-13T01:23:26.866Z,46.21
2023-05-13T01:25:54.881Z,46.47
2023-05-13T01:28:23.322Z,46.53
2023-05-13T01:30:51.784Z,46.44
2023-05-13T01:33:21.055Z,46.67
2023-05-13T01:35:49.262Z,46.31
2023-05-13T01:38:19.877Z,46.34
2023-05-13T01:40:49.692Z,46.69
2023-05-13T01:43:18.479Z,46.51
2023-05-13T01:45:46.450Z,46.46
2023-05-13T01:48:14.510Z,46.53
2023-05-13T01:50:42.560Z,46.61
2023-05-13T01:53:10.602Z,46.69
2023-05-13T01:55:38.639Z,46.78
2023-05-13T01:58:08.024Z,46.48
2023-05-13T02:00:36.018Z,46.84
2023-05-13T02:03:04.400Z,46.87
2023-05-13T02:05:33.356Z,46.35
2023-05-13T02:08:01.525Z,46.70
2023-05-13T02:10:29.494Z,46.96
2023-05-13T02:12:58.145Z,46.71
2023-05-13T02:15:27.698Z,46.89
2023-05-13T02:17:55.821Z,47.12
2023-05-13T02:20:24.151Z,47.05
2023-05-13T02:22:52.235Z,47.19
2023-05-13T02:25:20.570Z,47.15
2023-05-13T02:27:48.756Z,47.14
2023-05-13T02:30:17.930Z,47.18
2023-05-13T02:32:47.572Z,47.47
2023-05-13T02:35:16.091Z,47.17
2023-05-13T02:37:44.256Z,47.36
2023-05-13T02:40:13.674Z,47.66
2023-05-13T02:42:43.402Z,47.77
2023-05-13T02:45:12.565Z,47.64
2023-05-13T02:47:41.306Z,47.63
2023-05-13T02:50:12.669Z,47.88
2023-05-13T02:52:41.007Z,47.66
2023-05-13T02:55:10.739Z,47.65
2023-05-13T02:57:39.286Z,47.76
2023-05-13T03:00:09.564Z,47.85
2023-05-13T03:02:41.256Z,47.90
2023-05-13T03:05:11.800Z,47.88
2023-05-13T03:07:39.930Z,48.02
2023-05-13T03:10:08.906Z,47.97
2023-05-13T03:12:37.538Z,48.05
2023-05-13T03:15:06.533Z,48.12
2023-05-13T03:17:34.792Z,48.06
2023-05-13T03:20:02.903Z,48.21
2023-05-13T03:22:32.447Z,48.29
2023-05-13T03:25:00.918Z,48.24
2023-05-13T03:27:29.008Z,48.25
2023-05-13T03:29:57.073Z,48.53
2023-05-13T03:32:30.553Z,48.54
2023-05-13T03:35:00.922Z,48.53
2023-05-13T03:37:29.276Z,48.83
2023-05-13T03:39:58.983Z,48.49
2023-05-13T03:42:26.961Z,48.74
2023-05-13T03:44:57.083Z,48.62
2023-05-13T03:47:25.296Z,48.59
2023-05-13T03:49:56.276Z,48.55
2023-05-13T03:52:26.894Z,48.57
2023-05-13T03:54:55.005Z,48.62
2023-05-13T03:57:24.433Z,48.88
2023-05-13T03:59:52.498Z,48.69
2023-05-13T04:02:21.860Z,49.11
2023-05-13T04:04:50.362Z,48.88
2023-05-13T04:07:18.669Z,48.84
2023-05-13T04:09:46.827Z,48.87
2023-05-13T04:12:15.979Z,48.87
2023-05-13T04:14:45.627Z,48.97
2023-05-13T04:17:13.636Z,49.00
2023-05-13T04:19:41.652Z,48.65
2023-05-13T04:22:09.836Z,49.17
2023-05-13T04:24:37.999Z,49.03
2023-05-13T04:27:06.533Z,49.08
2023-05-13T04:29:34.755Z,48.99
2023-05-13T04:32:04.403Z,49.04
2023-05-13T04:34:32.540Z,49.04
2023-05-13T04:37:00.708Z,49.40
2023-05-13T04:39:28.785Z,48.99
2023-05-13T04:41:57.118Z,49.08
2023-05-13T04:44:25.260Z,49.26
2023-05-13T04:46:53.474Z,48.79
2023-05-13T04:49:23.197Z,49.19
2023-05-13T04:51:52.448Z,49.16
2023-05-13T04:54:21.191Z,49.38
2023-05-13T04:56:49.481Z,49.26
2023-05-13T04:59:17.561Z,49.57
2023-05-13T05:01:45.802Z,49.32
2023-05-13T05:04:14.785Z,49.42
2023-05-13T05:06:44.447Z,49.35
2023-05-13T05:09:12.851Z,49.40
2023-05-13T05:11:40.941Z,49.34
2023-05-13T05:14:09.381Z,49.45
2023-05-13T05:16:38.471Z,49.30
2023-05-13T05:19:06.620Z,49.42
2023-05-13T05:21:35.265Z,49.37
2023-05-13T05:24:06.329Z,48.92
2023-05-13T05:26:34.866Z,49.64
2023-05-13T05:29:03.168Z,49.38
2023-05-13T05:31:33.673Z,49.21
2023-05-13T05:34:02.347Z,49.52
2023-05-13T05:36:31.439Z,49.75
2023-05-13T05:38:59.740Z,49.60
2023-05-13T05:41:29.677Z,49.67
2023-05-13T05:43:58.042Z,49.88
2023-05-13T05:46:26.732Z,49.52
2023-05-13T05:48:55.389Z,49.73
2023-05-13T05:51:24.060Z,49.75
2023-05-13T05:53:52.222Z,49.95
2023-05-13T05:56:20.298Z,49.80
2023-05-13T05:58:49.815Z,49.66
2023-05-13T06:01:17.979Z,49.90
2023-05-13T06:03:47.058Z,49.77
2023-05-13T06:06:15.505Z,49.69
2023-05-13T06:08:43.735Z,49.94
2023-05-13T06:11:12.012Z,49.66
2023-05-13T06:13:40.817Z,49.89
2023-05-13T06:16:11.376Z,49.80
2023-05-13T06:18:40.757Z,49.90
2023-05-13T06:21:11.024Z,49.96
2023-05-13T06:23:39.452Z,49.95
2023-05-13T06:26:08.326Z,50.03
2023-05-13T06:28:36.596Z,50.03
2023-05-13T06:31:04.820Z,50.11
2023-05-13T06:33:35.262Z,49.99
2023-05-13T06:36:03.608Z,49.71
2023-05-13T06:38:32.115Z,49.94
2023-05-13T06:41:00.662Z,49.94
2023-05-13T06:43:29.100Z,49.82
2023-05-13T06:45:57.301Z,49.87
2023-05-13T06:48:25.532Z,49.90
2023-05-13T06:51:10.011Z,49.91
2023-05-13T06:53:38.230Z,49.78
2023-05-13T06:56:06.947Z,49.72
2023-05-13T06:58:35.336Z,49.83
2023-05-13T07:01:03.788Z,49.67
2023-05-13T07:03:32.320Z,49.81
2023-05-13T07:06:00.569Z,49.62
2023-05-13T07:08:30.201Z,49.64
2023-05-13T07:10:58.504Z,49.42
2023-05-13T07:13:27.435Z,49.59
2023-05-13T07:15:56.334Z,49.52
2023-05-13T07:18:25.103Z,49.50
2023-05-13T07:20:53.899Z,49.40
2023-05-13T07:23:21.978Z,49.61
2023-05-13T07:25:52.724Z,49.78
2023-05-13T07:28:21.409Z,49.58
2023-05-13T07:30:49.808Z,49.49
2023-05-13T07:33:17.978Z,49.42
2023-05-13T07:35:46.332Z,49.57
2023-05-13T07:38:15.192Z,49.32
2023-05-13T07:40:43.588Z,49.36
2023-05-13T07:43:13.675Z,49.44
2023-05-13T07:45:42.400Z,49.35
2023-05-13T07:48:10.968Z,49.23
2023-05-13T07:50:39.353Z,49.11
2023-05-13T07:53:07.504Z,49.32
2023-05-13T07:55:35.548Z,49.07
2023-05-13T07:58:03.735Z,48.91
2023-05-13T08:00:33.279Z,48.77
2023-05-13T08:03:01.665Z,49.13
2023-05-13T08:05:29.842Z,48.84
2023-05-13T08:07:57.948Z,48.91
2023-05-13T08:10:25.887Z,49.05
2023-05-13T08:12:57.877Z,48.87
2023-05-13T08:15:28.273Z,48.67
2023-05-13T08:21:03.539Z,48.72
2023-05-13T08:26:53.531Z,48.25
2023-05-13T08:29:27.627Z,48.06
2023-05-13T08:32:04.832Z,47.65
2023-05-13T08:34:44.540Z,48.11
2023-05-13T08:37:19.404Z,47.89
2023-05-13T08:39:51.836Z,47.77
2023-05-13T08:42:24.005Z,47.68
2023-05-13T08:44:56.955Z,47.56
2023-05-13T08:47:35.480Z,47.44
2023-05-13T08:50:06.152Z,47.85
2023-05-13T08:52:49.824Z,47.41
2023-05-13T08:55:20.169Z,47.79
2023-05-13T08:57:52.696Z,47.56
2023-05-13T09:00:21.933Z,47.65
2023-05-13T09:02:51.589Z,47.54
2023-05-13T09:05:20.914Z,47.30
2023-05-13T09:07:50.901Z,47.80
2023-05-13T09:10:20.424Z,47.38
2023-05-13T09:12:51.208Z,47.51
2023-05-13T09:15:20.674Z,46.60
2023-05-13T09:17:52.627Z,46.82
2023-05-13T09:20:22.341Z,47.45
2023-05-13T09:22:53.594Z,47.04
2023-05-13T09:25:24.836Z,46.90
2023-05-13T09:27:57.968Z,46.71
2023-05-13T09:30:27.532Z,47.26
2023-05-13T09:33:11.712Z,47.45
2023-05-13T09:35:41.777Z,47.36
2023-05-13T09:38:23.800Z,47.41
2023-05-13T09:40:56.700Z,47.42
2023-05-13T09:43:30.114Z,47.22
2023-05-13T09:45:59.768Z,47.01
2023-05-13T09:48:29.720Z,47.08
2023-05-13T09:51:01.069Z,46.97
2023-05-13T09:53:46.911Z,46.90
2023-05-13T09:56:15.432Z,46.68
2023-05-13T09:58:52.708Z,46.73
2023-05-13T10:01:22.137Z,46.63
2023-05-13T10:03:51.442Z,46.29
2023-05-13T10:06:32.983Z,46.73
2023-05-13T10:09:04.749Z,46.54
2023-05-13T10:11:37.174Z,46.33
2023-05-13T10:14:18.486Z,46.23
2023-05-13T10:16:49.650Z,46.13
2023-05-13T10:19:20.241Z,45.93
2023-05-13T10:21:51.945Z,46.43
2023-05-13T10:24:23.493Z,46.20
2023-05-13T10:26:54.711Z,46.24
2023-05-13T10:29:24.640Z,45.89
2023-05-13T10:31:54.354Z,45.93
2023-05-13T10:34:23.989Z,45.29
2023-05-13T10:37:12.931Z,45.61
2023-05-13T10:40:05.041Z,45.32
2023-05-13T10:42:44.891Z,45.06
2023-05-13T10:45:14.620Z,45.56
2023-05-13T10:48:06.426Z,45.79
2023-05-13T10:50:46.353Z,45.55
2023-05-13T10:53:24.604Z,45.49
2023-05-13T10:56:00.577Z,45.28
2023-05-13T10:58:34.028Z,45.12
2023-05-13T11:01:28.663Z,44.59
2023-05-13T11:03:58.784Z,44.49
2023-05-13T11:06:33.199Z,44.81
2023-05-13T11:09:01.523Z,44.94
2023-05-13T11:11:35.372Z,44.77
2023-05-13T11:14:16.983Z,44.51
2023-05-13T11:16:53.660Z,44.54
2023-05-13T11:19:24.883Z,44.52
2023-05-13T11:21:54.766Z,44.01
2023-05-13T11:24:24.710Z,43.86
2023-05-13T11:26:56.472Z,44.00
2023-05-13T11:29:32.736Z,43.85
2023-05-13T11:32:02.761Z,43.97
2023-05-13T11:34:32.157Z,44.20
2023-05-13T11:37:11.397Z,43.99
2023-05-13T11:39:42.153Z,44.05
2023-05-13T11:42:15.879Z,43.48
2023-05-13T11:45:01.940Z,43.70
2023-05-13T11:47:34.672Z,43.49
2023-05-13T11:50:07.891Z,43.10
2023-05-13T11:55:38.056Z,43.79
2023-05-13T11:58:08.600Z,42.96
2023-05-13T12:03:34.021Z,42.34
2023-05-13T12:12:07.624Z,42.65
2023-05-13T12:15:21.896Z,42.27
2023-05-13T12:17:51.352Z,41.94
2023-05-13T12:20:21.410Z,41.79
2023-05-13T12:22:58.829Z,42.12
2023-05-13T12:25:42.491Z,42.09
2023-05-13T12:28:17.866Z,41.51
2023-05-13T12:30:54.320Z,41.40
2023-05-13T12:33:24.001Z,41.46
2023-05-13T12:35:53.593Z,41.57
2023-05-13T12:38:24.299Z,41.69
2023-05-13T12:40:54.856Z,41.39
2023-05-13T12:43:25.007Z,41.31
2023-05-13T12:45:56.899Z,41.40
2023-05-13T12:48:26.551Z,41.36
2023-05-13T12:50:59.614Z,41.04
2023-05-13T12:53:29.756Z,40.87
2023-05-13T12:55:58.073Z,40.62
2023-05-13T12:58:27.321Z,39.53
2023-05-13T13:01:00.704Z,39.69
2023-05-13T13:03:29.980Z,40.80
2023-05-13T13:05:59.600Z,40.83
2023-05-13T13:08:30.527Z,42.09
2023-05-13T13:11:00.454Z,39.49
2023-05-13T13:13:28.756Z,39.26
2023-05-13T13:15:58.415Z,38.88
2023-05-13T13:18:26.888Z,36.58
2023-05-13T13:20:56.352Z,35.99
2023-05-13T13:23:25.355Z,35.01
2023-05-13T13:25:53.657Z,35.85
2023-05-13T13:28:21.794Z,35.20
2023-05-13T13:31:00.493Z,33.63
2023-05-13T13:33:30.246Z,33.14
2023-05-13T13:36:03.413Z,33.06
2023-05-13T13:38:31.694Z,31.83
2023-05-13T13:40:59.984Z,31.11
2023-05-13T13:43:28.390Z,30.58
2023-05-13T13:45:57.897Z,30.41
2023-05-13T13:48:25.913Z,29.41
2023-05-13T13:50:56.029Z,29.13
2023-05-13T13:53:27.677Z,28.94
2023-05-13T13:56:01.905Z,27.66
2023-05-13T13:58:30.399Z,28.10
2023-05-13T14:01:01.970Z,27.34
2023-05-13T14:03:30.603Z,26.73
2023-05-13T14:06:00.151Z,27.13
2023-05-13T14:08:28.881Z,28.40
2023-05-13T14:10:58.157Z,28.58
2023-05-13T14:13:26.422Z,28.31
2023-05-13T14:15:54.587Z,27.81
2023-05-13T14:18:24.997Z,27.67
2023-05-13T14:20:53.367Z,27.43
2023-05-13T14:23:23.075Z,28.04
2023-05-13T14:25:51.572Z,28.03
2023-05-13T14:28:22.716Z,28.27
2023-05-13T14:30:52.637Z,28.35
2023-05-13T14:33:21.929Z,27.15
2023-05-13T14:35:52.876Z,26.88
2023-05-13T14:38:25.248Z,27.02
2023-05-13T14:40:53.505Z,27.49
2023-05-13T14:43:21.634Z,26.67
2023-05-13T14:45:51.103Z,27.05
2023-05-13T14:48:21.508Z,27.00
2023-05-13T14:50:52.076Z,27.00
2023-05-13T14:53:20.209Z,26.16
2023-05-13T14:55:51.495Z,26.22
2023-05-13T14:58:22.903Z,26.31
2023-05-13T15:01:07.656Z,26.69
2023-05-13T15:03:38.074Z,26.90
2023-05-13T15:06:10.876Z,26.82
2023-05-13T15:08:39.786Z,26.70
2023-05-13T15:11:42.302Z,25.42
2023-05-13T15:29:31.664Z,23.29
2023-05-13T17:04:55.159Z,15.69
2023-05-13T18:14:32.681Z,20.20
2023-05-13T19:22:47.344Z,34.86
2023-05-13T19:28:15.402Z,36.86
2023-05-13T19:30:44.910Z,37.60
2023-05-13T19:36:23.286Z,39.55
2023-05-13T19:39:06.621Z,39.94
2023-05-13T19:44:34.216Z,41.38
2023-05-13T19:47:02.800Z,42.08
2023-05-13T19:49:31.730Z,42.31
2023-05-13T19:52:02.226Z,42.87
2023-05-13T19:54:31.000Z,43.06
2023-05-13T19:57:01.872Z,43.42
2023-05-13T19:59:31.344Z,43.45
2023-05-13T23:47:14.590Z,48.60
